Time;durP1;ratioP1;P1;durP2;ratioP2;P2;SDS_P1;SDS_P2;PMS_P1;PMS_P2;Temp;Humidity;BMP_temperature;BMP_pressure;BME280_temperature;BME280_humidity;BME280_pressure;Samples;Min_cycle;Max_cycle;Signal;HPM_P1;HPM_P2
2021/05/17 00:00:14;;;;;;;8.00;4.00;;;;;;;13.26;69.41;99217.88;5074573;28;20444;-73
2021/05/17 00:02:42;;;;;;;6.93;4.32;;;;;;;13.37;69.02;99217.78;5074443;28;20067;-71
2021/05/17 00:05:12;;;;;;;6.53;3.90;;;;;;;13.26;69.10;99213.38;5074725;28;20052;-71
2021/05/17 00:07:41;;;;;;;7.32;4.35;;;;;;;13.26;68.91;99215.22;5074296;28;20549;-72
2021/05/17 00:10:10;;;;;;;7.43;3.95;;;;;;;13.02;68.13;99170.81;5074500;28;20477;-73
2021/05/17 00:12:38;;;;;;;6.40;4.13;;;;;;;13.23;67.91;99210.13;5074317;28;20085;-73
2021/05/17 00:15:12;;;;;;;7.38;4.07;;;;;;;13.26;68.04;99204.50;5074430;28;20550;-73
2021/05/17 00:17:40;;;;;;;6.53;3.95;;;;;;;13.23;68.28;99200.28;5074261;28;20037;-71
2021/05/17 00:20:10;;;;;;;8.73;3.70;;;;;;;13.25;68.39;99208.16;5074750;28;20119;-72
2021/05/17 00:22:39;;;;;;;8.27;4.20;;;;;;;13.22;68.88;99203.06;5073952;28;20048;-72
2021/05/17 00:25:09;;;;;;;7.65;4.40;;;;;;;13.22;69.09;99203.06;5074075;28;20151;-71
2021/05/17 00:27:37;;;;;;;6.30;4.10;;;;;;;13.25;69.22;99202.81;5072621;28;20053;-72
2021/05/17 00:30:06;;;;;;;6.68;4.18;;;;;;;13.43;68.37;99198.50;5074078;28;20048;-71
2021/05/17 00:32:35;;;;;;;6.70;4.03;;;;;;;13.63;68.03;99191.38;5073982;28;20086;-73
2021/05/17 00:35:03;;;;;;;10.40;3.90;;;;;;;13.57;67.89;99175.84;5073919;28;20040;-68
2021/05/17 00:37:32;;;;;;;6.78;3.90;;;;;;;13.49;67.78;99176.50;5073840;28;20036;-69
2021/05/17 00:40:01;;;;;;;8.18;3.88;;;;;;;13.27;67.51;99136.56;5073361;28;20063;-70
2021/05/17 00:42:29;;;;;;;7.20;4.13;;;;;;;13.40;68.02;99174.66;5074228;28;20052;-69
2021/05/17 00:44:59;;;;;;;8.32;3.95;;;;;;;13.36;67.82;99167.88;5073575;28;20074;-69
2021/05/17 00:47:28;;;;;;;7.40;4.35;;;;;;;12.94;67.32;99086.84;5073803;28;20479;-69
2021/05/17 00:49:57;;;;;;;6.93;3.92;;;;;;;13.39;67.80;99167.59;5073506;28;20055;-69
2021/05/17 00:52:27;;;;;;;6.97;4.35;;;;;;;13.37;67.75;99173.09;5073714;28;20044;-71
2021/05/17 00:54:55;;;;;;;6.13;3.55;;;;;;;13.28;67.77;99170.41;5073527;28;20397;-70
2021/05/17 00:57:24;;;;;;;7.45;4.00;;;;;;;13.09;68.45;99171.97;5073609;28;20048;-70
2021/05/17 00:59:52;;;;;;;9.73;4.60;;;;;;;12.99;69.02;99164.88;5073435;28;20075;-70
2021/05/17 01:02:20;;;;;;;7.20;3.95;;;;;;;12.99;68.64;99168.41;5073818;28;20394;-74
2021/05/17 01:04:48;;;;;;;7.80;4.10;;;;;;;13.09;68.62;99161.28;5073038;28;20044;-72
2021/05/17 01:07:20;;;;;;;10.35;4.03;;;;;;;13.18;68.22;99154.25;5073568;28;20436;-73
2021/05/17 01:09:48;;;;;;;8.68;3.83;;;;;;;13.26;68.20;99153.63;5073236;28;20102;-74
2021/05/17 01:12:17;;;;;;;5.55;3.40;;;;;;;13.13;68.59;99145.81;5073339;28;20044;-71
2021/05/17 01:14:49;;;;;;;5.65;3.63;;;;;;;13.03;69.00;99143.09;5072973;28;20048;-71
2021/05/17 01:17:17;;;;;;;7.43;3.72;;;;;;;12.97;69.70;99148.97;5073304;28;20451;-70
2021/05/17 01:20:00;;;;;;;6.63;3.80;;;;;;;12.92;69.61;99139.63;5072751;28;20040;-71
2021/05/17 01:22:36;;;;;;;5.82;3.58;;;;;;;12.95;69.95;99155.44;5073397;28;20044;-71
2021/05/17 01:25:07;;;;;;;6.78;3.58;;;;;;;13.12;69.32;99149.44;5073335;28;20049;-70
2021/05/17 01:27:37;;;;;;;9.18;3.90;;;;;;;13.14;69.31;99148.34;5072129;28;20056;-70
2021/05/17 01:30:06;;;;;;;6.18;3.65;;;;;;;13.07;69.92;99140.97;5072927;28;20444;-70
2021/05/17 01:32:37;;;;;;;5.97;3.78;;;;;;;13.16;69.70;99135.66;5072943;28;20036;-70
2021/05/17 01:35:07;;;;;;;7.53;3.60;;;;;;;13.20;69.65;99141.59;5073474;28;20049;-70
2021/05/17 01:37:37;;;;;;;8.43;3.80;;;;;;;13.21;69.76;99139.78;5072932;28;20056;-71
2021/05/17 01:40:10;;;;;;;7.00;4.10;;;;;;;13.16;69.46;99135.66;5073226;28;20098;-71
2021/05/17 01:42:40;;;;;;;8.77;3.95;;;;;;;13.20;69.51;99130.06;5071890;28;20067;-73
2021/05/17 01:45:10;;;;;;;8.82;4.28;;;;;;;13.16;69.45;99124.09;5073026;28;20040;-73
2021/05/17 01:47:40;;;;;;;6.93;3.63;;;;;;;13.34;68.26;99130.53;5072766;28;20063;-72
2021/05/17 01:50:10;;;;;;;7.97;3.83;;;;;;;13.29;68.71;99121.22;5072971;28;20044;-72
2021/05/17 01:52:39;;;;;;;5.88;3.70;;;;;;;13.30;68.69;99122.91;5072911;28;20037;-72
2021/05/17 01:55:11;;;;;;;6.47;3.72;;;;;;;13.16;69.03;99122.28;5072786;28;20039;-70
2021/05/17 01:57:39;;;;;;;8.55;3.75;;;;;;;13.15;69.81;99133.97;5072779;28;20044;-70
2021/05/17 02:00:11;;;;;;;6.70;3.70;;;;;;;13.12;70.18;99126.22;5072908;28;20037;-70
2021/05/17 02:02:39;;;;;;;6.10;3.45;;;;;;;13.11;70.44;99129.84;5072706;28;20454;-70
2021/05/17 02:05:08;;;;;;;5.70;3.63;;;;;;;13.08;70.78;99118.56;5072631;28;20045;-70
2021/05/17 02:07:36;;;;;;;5.28;3.15;;;;;;;13.02;70.70;99103.88;5072463;28;20049;-71
2021/05/17 02:10:07;;;;;;;5.80;3.25;;;;;;;13.09;70.65;99106.88;5072356;28;20040;-71
2021/05/17 02:12:39;;;;;;;5.45;3.20;;;;;;;13.13;70.58;99114.53;5072747;28;20041;-71
2021/05/17 02:15:09;;;;;;;5.80;3.05;;;;;;;13.17;70.49;99115.09;5073063;28;20067;-69
2021/05/17 02:17:37;;;;;;;7.18;3.00;;;;;;;13.14;70.27;99108.19;5072684;28;20037;-69
2021/05/17 02:20:06;;;;;;;4.80;2.95;;;;;;;13.18;70.37;99103.38;5072613;28;20439;-70
2021/05/17 02:22:35;;;;;;;7.93;2.92;;;;;;;13.25;69.97;99103.72;5072697;28;20053;-69
2021/05/17 02:25:05;;;;;;;5.55;3.17;;;;;;;13.34;69.20;99105.59;5072077;28;20550;-70
2021/05/17 02:27:34;;;;;;;6.60;3.00;;;;;;;13.30;69.73;99098.78;5072787;28;20044;-69
2021/05/17 02:30:03;;;;;;;5.07;2.92;;;;;;;13.33;69.50;99094.03;5072146;28;20152;-69
2021/05/17 02:32:32;;;;;;;5.15;2.92;;;;;;;13.32;69.28;99096.84;5072533;28;20040;-69
2021/05/17 02:35:00;;;;;;;6.45;2.95;;;;;;;13.30;69.74;99104.16;5072350;28;20082;-71
2021/05/17 02:37:28;;;;;;;5.55;3.20;;;;;;;13.25;69.88;99106.41;5072299;28;20044;-69
2021/05/17 02:39:57;;;;;;;5.45;2.63;;;;;;;13.23;69.82;99103.88;5075796;28;20052;-70
2021/05/17 02:42:28;;;;;;;5.15;2.88;;;;;;;12.73;69.95;99025.34;5076359;28;20094;-69
2021/05/17 02:44:57;;;;;;;4.93;2.75;;;;;;;13.22;70.48;99101.31;5075967;28;20056;-69
2021/05/17 02:47:26;;;;;;;3.95;2.50;;;;;;;13.20;70.69;99104.13;5074898;28;20048;-71
2021/05/17 02:49:57;;;;;;;4.18;2.60;;;;;;;13.15;70.73;99099.16;5075779;28;20037;-69
2021/05/17 02:52:30;;;;;;;5.00;2.85;;;;;;;13.13;70.91;99095.78;5076023;28;20078;-69
2021/05/17 02:55:02;;;;;;;6.47;2.55;;;;;;;13.16;70.89;99108.88;5075640;28;20413;-70
2021/05/17 02:57:41;;;;;;;6.72;2.70;;;;;;;13.20;70.93;99101.44;5074381;28;20063;-71
2021/05/17 03:00:17;;;;;;;6.03;2.80;;;;;;;13.21;70.74;99095.09;5076269;28;20102;-71
2021/05/17 03:02:57;;;;;;;4.40;2.67;;;;;;;13.24;70.90;99094.00;5075561;28;20059;-74
2021/05/17 03:05:28;;;;;;;5.70;3.00;;;;;;;13.32;70.62;99083.47;5075780;28;20119;-71
2021/05/17 03:08:00;;;;;;;6.35;3.15;;;;;;;13.40;70.37;99084.44;5075261;28;20051;-70
2021/05/17 03:10:30;;;;;;;4.47;2.80;;;;;;;13.09;70.74;99022.06;5074744;28;20076;-70
2021/05/17 03:13:03;;;;;;;5.70;3.08;;;;;;;13.36;70.86;99071.47;5074341;28;20056;-70
2021/05/17 03:15:32;;;;;;;6.75;2.90;;;;;;;13.55;70.52;99084.03;5075785;28;20075;-70
2021/05/17 03:18:01;;;;;;;6.25;3.08;;;;;;;13.53;70.20;99073.47;5075134;28;20044;-70
2021/05/17 03:20:29;;;;;;;8.13;3.03;;;;;;;13.65;69.90;99072.34;5075382;28;20044;-70
2021/05/17 03:22:58;;;;;;;4.10;2.80;;;;;;;13.65;70.01;99085.75;5075105;28;20070;-70
2021/05/17 03:25:31;;;;;;;6.15;2.95;;;;;;;13.65;70.62;99083.06;5075541;28;20040;-70
2021/05/17 03:27:59;;;;;;;6.00;2.83;;;;;;;13.74;70.46;99092.09;5074999;28;20055;-70
2021/05/17 03:30:27;;;;;;;6.63;2.83;;;;;;;13.70;71.32;99085.31;5074951;28;20072;-70
2021/05/17 03:32:55;;;;;;;6.20;2.50;;;;;;;13.78;70.42;99087.28;5074778;28;20440;-72
2021/05/17 03:35:24;;;;;;;6.97;2.88;;;;;;;13.78;70.67;99092.66;5075415;28;20056;-72
2021/05/17 03:37:52;;;;;;;5.75;3.15;;;;;;;13.78;71.12;99081.94;5074923;28;20041;-72
2021/05/17 03:40:20;;;;;;;5.85;3.20;;;;;;;13.82;70.61;99083.38;5074835;28;20221;-71
2021/05/17 03:42:48;;;;;;;5.80;3.30;;;;;;;13.91;70.63;99091.41;5074692;28;20102;-71
2021/05/17 03:45:16;;;;;;;6.18;3.10;;;;;;;13.77;70.66;99070.38;5074951;28;20040;-71
2021/05/17 03:47:44;;;;;;;7.05;2.97;;;;;;;13.85;70.90;99085.75;5074819;28;20040;-70
2021/05/17 03:50:13;;;;;;;5.32;2.88;;;;;;;13.78;71.27;99077.41;5073950;28;20036;-71
2021/05/17 03:52:42;;;;;;;4.70;3.03;;;;;;;13.79;71.85;99078.25;5075021;28;20044;-72
2021/05/17 03:55:11;;;;;;;6.38;3.05;;;;;;;13.78;72.25;99081.94;5074512;28;20075;-72
2021/05/17 03:57:39;;;;;;;7.82;3.42;;;;;;;13.74;72.75;99073.34;5074974;28;20044;-72
2021/05/17 04:00:09;;;;;;;4.88;2.97;;;;;;;13.84;72.44;99082.22;5074434;28;20054;-73
2021/05/17 04:02:38;;;;;;;5.82;2.92;;;;;;;13.64;72.58;99043.03;5074997;28;20075;-72
2021/05/17 04:05:20;;;;;;;6.68;3.20;;;;;;;13.77;72.70;99070.38;5074641;28;20037;-72
2021/05/17 04:13:22;;;;;;;6.40;3.33;;;;;;;13.99;71.91;99064.75;5074497;28;20102;-70
2021/05/17 04:15:52;;;;;;;4.60;3.15;;;;;;;13.84;71.51;99030.47;5074183;28;20040;-74
2021/05/17 04:18:21;;;;;;;5.38;3.25;;;;;;;13.96;71.83;99058.78;5074179;28;20045;-71
2021/05/17 04:20:50;;;;;;;6.65;3.63;;;;;;;14.01;71.74;99057.38;5074109;28;20515;-70
2021/05/17 04:23:21;;;;;;;7.07;3.58;;;;;;;13.91;72.18;99058.41;5074093;28;20048;-70
2021/05/17 04:25:49;;;;;;;9.68;4.00;;;;;;;13.88;72.41;99064.84;5073091;28;20052;-69
2021/05/17 04:28:17;;;;;;;6.78;3.72;;;;;;;13.80;73.03;99063.88;5074270;28;20553;-70
2021/05/17 04:30:46;;;;;;;7.15;3.60;;;;;;;13.82;73.14;99059.25;5073926;28;20037;-72
2021/05/17 04:33:16;;;;;;;6.90;3.97;;;;;;;13.80;73.58;99067.44;5073730;28;20115;-71
2021/05/17 04:35:44;;;;;;;8.13;3.80;;;;;;;13.89;73.20;99057.66;5073721;28;20110;-71
2021/05/17 04:38:12;;;;;;;7.95;3.45;;;;;;;13.93;73.29;99045.69;5073476;28;20041;-71
2021/05/17 04:40:43;;;;;;;7.00;3.83;;;;;;;13.95;73.39;99036.50;5073835;28;20068;-71
2021/05/17 04:43:15;;;;;;;7.28;3.58;;;;;;;13.87;73.69;99043.56;5072347;28;20413;-74
2021/05/17 04:45:43;;;;;;;7.50;3.70;;;;;;;13.88;73.79;99039.91;5073546;28;20049;-73
2021/05/17 04:48:11;;;;;;;10.85;4.38;;;;;;;13.78;74.34;99031.84;5073213;28;20066;-73
2021/05/17 04:50:39;;;;;;;7.32;3.97;;;;;;;13.80;74.45;99029.03;5073406;28;20409;-74
2021/05/17 04:53:07;;;;;;;6.85;3.60;;;;;;;13.79;74.37;99027.34;5073405;28;20044;-74
2021/05/17 04:55:35;;;;;;;6.53;3.83;;;;;;;13.78;75.11;99033.69;5073461;28;20135;-72
2021/05/17 04:58:04;;;;;;;8.27;4.15;;;;;;;13.81;75.08;99038.78;5073084;28;20067;-72
2021/05/17 05:00:32;;;;;;;5.68;3.92;;;;;;;13.65;76.28;99048.22;5072486;28;20056;-73
2021/05/17 05:03:00;;;;;;;7.32;4.18;;;;;;;13.62;76.91;99063.75;5072823;28;20048;-73
2021/05/17 05:05:28;;;;;;;8.30;4.28;;;;;;;13.59;77.44;99062.19;5073369;28;20044;-74
2021/05/17 05:07:56;;;;;;;6.15;4.28;;;;;;;13.52;77.91;99055.72;5071768;28;20495;-75
2021/05/17 05:10:25;;;;;;;7.15;4.45;;;;;;;13.49;78.42;99055.97;5073085;28;20086;-74
2021/05/17 05:12:53;;;;;;;8.63;4.25;;;;;;;13.52;79.19;99061.06;5073260;28;20040;-74
2021/05/17 05:15:21;;;;;;;6.97;3.88;;;;;;;13.57;80.25;99061.47;5073504;28;20040;-74
2021/05/17 05:17:51;;;;;;;10.88;4.30;;;;;;;13.56;81.49;99069.66;5073541;28;20040;-73
2021/05/17 05:20:19;;;;;;;8.10;4.57;;;;;;;13.54;82.13;99059.09;5073242;28;20072;-73
2021/05/17 05:22:47;;;;;;;9.00;4.32;;;;;;;13.54;81.62;99058.25;5072198;28;20135;-73
2021/05/17 05:25:16;;;;;;;6.63;3.80;;;;;;;13.57;81.73;99061.47;5072731;28;20171;-72
2021/05/17 05:27:47;;;;;;;5.70;4.00;;;;;;;13.61;81.65;99059.38;5072868;28;20064;-73
2021/05/17 05:30:26;;;;;;;6.40;3.97;;;;;;;13.62;81.38;99067.28;5072387;28;20457;-73
2021/05/17 05:33:07;;;;;;;7.47;3.92;;;;;;;13.65;81.79;99067.00;5073082;28;20040;-72
2021/05/17 05:35:35;;;;;;;9.23;4.63;;;;;;;13.65;82.22;99072.34;5072807;28;20510;-72
2021/05/17 05:38:03;;;;;;;7.03;4.43;;;;;;;13.64;82.84;99076.03;5072721;28;20123;-77
2021/05/17 05:40:30;;;;;;;7.65;4.55;;;;;;;13.64;83.46;99076.03;5072185;28;20056;-80
2021/05/17 05:42:58;;;;;;;6.40;4.53;;;;;;;13.69;83.25;99078.25;5072247;28;20128;-77
2021/05/17 05:45:27;;;;;;;7.85;5.30;;;;;;;13.66;84.46;99079.41;5072936;28;20041;-74
2021/05/17 05:47:56;;;;;;;8.50;5.05;;;;;;;13.73;84.20;99091.25;5072732;28;20040;-75
2021/05/17 05:50:23;;;;;;;10.15;5.03;;;;;;;13.65;84.77;99083.06;5072959;28;20052;-71
2021/05/17 05:52:51;;;;;;;9.88;5.63;;;;;;;13.63;85.11;99078.84;5072658;28;20072;-72
2021/05/17 05:55:19;;;;;;;7.63;5.60;;;;;;;13.69;85.65;99081.78;5072469;28;20504;-73
2021/05/17 05:57:47;;;;;;;7.50;5.38;;;;;;;13.65;86.19;99083.06;5072910;28;20044;-77
2021/05/17 06:00:17;;;;;;;6.70;5.50;;;;;;;13.68;86.17;99077.41;5072070;28;20444;-81
2021/05/17 06:02:45;;;;;;;8.65;5.82;;;;;;;13.69;85.18;99068.38;5072210;28;20048;-76
2021/05/17 06:05:16;;;;;;;12.15;7.32;;;;;;;13.74;86.43;99082.22;5071788;28;20040;-79
2021/05/17 06:07:44;;;;;;;11.60;6.60;;;;;;;13.71;87.28;99082.53;5069198;28;20041;-78
2021/05/17 06:10:13;;;;;;;9.95;6.70;;;;;;;13.73;87.32;99077.84;5072105;28;20109;-78
2021/05/17 06:12:41;;;;;;;9.70;6.40;;;;;;;13.68;87.59;99080.09;5074794;28;20502;-78
2021/05/17 06:15:10;;;;;;;12.18;7.40;;;;;;;13.64;88.14;99078.69;5075738;28;20045;-78
2021/05/17 06:17:39;;;;;;;13.77;7.93;;;;;;;13.53;89.49;99073.47;5062479;28;20389;-72
2021/05/17 06:20:08;;;;;;;11.02;7.60;;;;;;;13.58;90.16;99079.25;5076521;28;20059;-72
2021/05/17 06:22:39;;;;;;;10.60;7.80;;;;;;;13.59;91.28;99083.63;5076549;28;20431;-71
2021/05/17 06:25:10;;;;;;;16.73;8.32;;;;;;;13.56;91.38;99075.03;5076692;28;20097;-70
2021/05/17 06:27:39;;;;;;;12.23;7.70;;;;;;;13.60;91.25;99079.94;5076206;28;20051;-71
2021/05/17 06:30:10;;;;;;;12.23;7.47;;;;;;;13.57;92.08;99069.53;5075943;28;20044;-74
2021/05/17 06:32:39;;;;;;;15.95;8.00;;;;;;;13.68;91.95;99079.25;5075963;28;20119;-72
2021/05/17 06:35:11;;;;;;;14.52;8.40;;;;;;;13.60;92.21;99066.56;5076259;28;20045;-70
2021/05/17 06:37:40;;;;;;;14.85;8.80;;;;;;;13.63;92.51;99073.47;5076149;28;20040;-72
2021/05/17 06:40:09;;;;;;;15.05;8.38;;;;;;;13.56;93.06;99066.97;5075546;28;20052;-72
2021/05/17 06:42:37;;;;;;;10.75;8.48;;;;;;;13.48;93.61;99048.94;5075860;28;20071;-73
2021/05/17 06:45:06;;;;;;;12.02;8.45;;;;;;;13.65;93.37;99068.81;5075806;28;20548;-74
2021/05/17 06:47:37;;;;;;;12.48;8.38;;;;;;;13.69;92.45;99060.34;5075935;28;20511;-73
2021/05/17 06:50:07;;;;;;;15.45;8.60;;;;;;;13.71;92.57;99061.06;5074189;28;20057;-75
2021/05/17 06:52:35;;;;;;;14.55;8.82;;;;;;;13.70;92.99;99054.03;5076017;28;20045;-72
2021/05/17 06:55:13;;;;;;;13.82;8.93;;;;;;;13.80;92.41;99058.50;5079376;28;20055;-74
2021/05/17 06:57:52;;;;;;;14.25;8.48;;;;;;;13.84;92.50;99054.59;5075983;28;20094;-70
2021/05/17 07:00:27;;;;;;;10.10;8.02;;;;;;;13.85;92.68;99045.56;5056808;28;20045;-76
2021/05/17 07:02:56;;;;;;;18.38;11.25;;;;;;;13.92;92.65;99047.53;5071723;28;20067;-71
2021/05/17 07:05:26;;;;;;;14.30;9.73;;;;;;;13.95;92.73;99051.75;5075692;28;20044;-71
2021/05/17 07:13:29;;;;;;;13.20;8.65;;;;;;;14.01;91.89;99030.59;5075720;28;20581;-74
2021/05/17 07:15:56;;;;;;;13.07;8.63;;;;;;;14.06;92.76;99046.22;5075159;28;20040;-73
2021/05/17 07:18:24;;;;;;;12.00;8.65;;;;;;;14.15;92.79;99048.03;5075017;28;20056;-73
2021/05/17 07:23:39;;;;;;;13.27;9.57;;;;;;;14.15;92.33;99041.84;5074679;28;20037;-71
2021/05/17 07:26:12;;;;;;;13.52;9.93;;;;;;;14.11;93.45;99041.28;5075188;28;20047;-71
2021/05/17 07:28:40;;;;;;;12.77;9.10;;;;;;;14.01;93.53;99046.66;5075234;28;20776;-71
2021/05/17 07:31:10;;;;;;;12.40;9.50;;;;;;;13.92;94.29;99035.97;5075176;28;20048;-73
2021/05/17 07:33:38;;;;;;;15.57;9.95;;;;;;;13.93;93.77;99046.53;5077819;28;20033;-74
2021/05/17 07:36:11;;;;;;;13.82;9.30;;;;;;;13.83;94.49;99034.97;5077719;28;20545;-74
2021/05/17 07:38:42;;;;;;;11.95;8.38;;;;;;;13.90;94.44;99045.97;5076346;28;20048;-74
2021/05/17 07:41:10;;;;;;;13.10;8.60;;;;;;;13.84;94.38;99028.63;5074970;28;20056;-75
2021/05/17 07:43:39;;;;;;;13.90;7.70;;;;;;;13.85;94.41;99037.50;5075272;28;20044;-70
2021/05/17 07:46:07;;;;;;;11.25;7.68;;;;;;;13.74;95.45;99033.16;5074744;28;20072;-71
2021/05/17 07:49:04;;;;;;;14.30;8.00;;;;;;;13.69;96.18;99020.16;5075096;28;20427;-71
2021/05/17 07:51:23;;;;;;;10.90;7.28;;;;;;;13.71;96.12;99036.97;5073264;28;20044;-73
2021/05/17 07:53:52;;;;;;;10.57;7.30;;;;;;;13.69;95.04;99014.78;5074999;28;20098;-71
2021/05/17 07:56:24;;;;;;;10.77;7.60;;;;;;;13.63;96.16;99020.75;5074952;28;20462;-70
2021/05/17 07:58:51;;;;;;;10.77;7.57;;;;;;;13.66;96.90;99024.97;5074357;28;20608;-72
2021/05/17 08:01:19;;;;;;;11.90;7.50;;;;;;;13.78;96.00;99015.78;5074710;28;20066;-74
2021/05/17 08:03:48;;;;;;;10.07;7.32;;;;;;;13.79;95.76;99008.59;5074465;28;20040;-77
2021/05/17 08:06:17;;;;;;;10.70;7.45;;;;;;;13.88;95.18;99002.38;5074435;28;20124;-77
2021/05/17 08:08:45;;;;;;;13.27;7.80;;;;;;;13.88;95.38;99003.22;5074253;28;20123;-71
2021/05/17 08:11:13;;;;;;;10.45;7.40;;;;;;;13.92;95.28;98998.44;5073830;28;20044;-74
2021/05/17 08:13:42;;;;;;;13.25;7.75;;;;;;;13.89;95.44;99007.59;5074428;28;20059;-73
2021/05/17 08:16:21;;;;;;;12.20;8.25;;;;;;;13.86;96.05;99001.66;5073922;28;20045;-72
2021/05/17 08:18:51;;;;;;;14.65;8.90;;;;;;;14.02;95.34;99009.97;5074144;28;20048;-72
2021/05/17 08:21:20;;;;;;;13.32;8.93;;;;;;;13.98;94.87;99013.91;5074157;28;20044;-70
2021/05/17 08:23:48;;;;;;;12.15;7.95;;;;;;;14.13;94.08;99007.13;5074154;28;20052;-70
2021/05/17 08:26:16;;;;;;;11.90;8.15;;;;;;;14.12;93.46;99005.44;5073792;28;20485;-70
2021/05/17 08:28:46;;;;;;;12.48;8.18;;;;;;;14.14;93.96;99014.19;5073749;28;20046;-72
2021/05/17 08:31:15;;;;;;;12.23;8.98;;;;;;;14.09;95.08;99004.88;5073890;28;20071;-71
2021/05/17 08:33:44;;;;;;;13.75;9.07;;;;;;;14.06;95.19;99010.53;5074309;28;20049;-70
2021/05/17 08:36:12;;;;;;;12.85;8.93;;;;;;;14.03;95.70;99003.63;5073329;28;20048;-70
2021/05/17 08:38:41;;;;;;;14.02;8.23;;;;;;;14.09;95.67;98997.69;5073798;28;20068;-73
2021/05/17 08:41:12;;;;;;;12.02;7.47;;;;;;;13.85;94.39;98954.41;5074033;28;20092;-73
2021/05/17 08:43:42;;;;;;;10.52;7.30;;;;;;;14.13;94.35;98985.66;5073668;28;20139;-70
2021/05/17 08:46:12;;;;;;;10.50;6.95;;;;;;;14.11;93.91;98976.94;5073329;28;20068;-70
2021/05/17 08:48:46;;;;;;;13.07;7.38;;;;;;;13.98;94.80;98982.59;5073899;28;20048;-77
2021/05/17 08:51:19;;;;;;;9.63;5.63;;;;;;;14.11;94.25;98984.13;5073470;28;20041;-72
2021/05/17 08:53:49;;;;;;;10.60;5.93;;;;;;;14.01;94.80;98987.69;5073407;28;20044;-73
2021/05/17 08:56:17;;;;;;;11.38;6.40;;;;;;;13.99;95.14;98986.13;5073635;28;20094;-71
2021/05/17 08:58:45;;;;;;;13.13;8.30;;;;;;;13.98;94.74;98981.75;5073014;28;20044;-71
2021/05/17 09:01:14;;;;;;;17.83;11.55;;;;;;;14.03;94.51;98974.13;5073117;28;20041;-71
2021/05/17 09:03:56;;;;;;;18.48;12.52;;;;;;;14.12;94.71;98973.25;5073479;28;20044;-71
2021/05/17 09:06:37;;;;;;;9.43;7.13;;;;;;;14.23;94.41;98966.88;5073255;28;20401;-70
2021/05/17 09:09:07;;;;;;;9.25;5.20;;;;;;;14.30;93.21;98968.81;5073066;28;20049;-74
2021/05/17 09:11:36;;;;;;;9.70;6.40;;;;;;;14.29;94.50;98959.09;5072485;28;20394;-71
2021/05/17 09:14:09;;;;;;;9.77;6.13;;;;;;;14.36;93.25;98961.16;5073162;28;20063;-75
2021/05/17 09:16:56;;;;;;;9.70;5.97;;;;;;;14.36;93.37;98964.69;5072934;28;20120;-74
2021/05/17 09:19:25;;;;;;;7.55;5.43;;;;;;;14.37;93.77;98954.81;5073163;28;20443;-71
2021/05/17 09:22:04;;;;;;;8.50;5.90;;;;;;;14.47;93.70;98942.22;5073152;28;20036;-73
2021/05/17 09:24:34;;;;;;;8.38;6.10;;;;;;;14.60;93.84;98951.63;5073156;28;20040;-74
2021/05/17 09:27:02;;;;;;;9.18;5.35;;;;;;;14.62;92.29;98937.22;5073002;28;20055;-73
2021/05/17 09:29:36;;;;;;;9.27;6.03;;;;;;;14.76;92.40;98945.59;5072932;28;20048;-71
2021/05/17 09:32:19;;;;;;;6.93;5.30;;;;;;;14.75;91.59;98941.22;5072915;28;20043;-72
2021/05/17 09:34:57;;;;;;;8.77;5.43;;;;;;;14.75;91.61;98940.38;5072939;28;20041;-74
2021/05/17 09:37:27;;;;;;;8.07;5.70;;;;;;;15.01;90.93;98937.81;5072880;28;20040;-71
2021/05/17 09:39:55;;;;;;;6.80;4.75;;;;;;;14.99;89.81;98921.03;5072343;28;20105;-72
2021/05/17 09:42:26;;;;;;;7.97;5.63;;;;;;;15.37;89.06;98928.78;5073481;28;20056;-74
2021/05/17 09:44:54;;;;;;;10.02;5.35;;;;;;;15.65;87.99;98926.00;5072840;28;20054;-73
2021/05/17 09:47:26;;;;;;;7.93;5.45;;;;;;;15.61;88.40;98897.75;5071705;28;20436;-74
2021/05/17 09:49:56;;;;;;;9.57;6.13;;;;;;;15.59;87.35;98913.16;5072515;28;20048;-74
2021/05/17 09:52:25;;;;;;;10.13;6.07;;;;;;;15.47;88.28;98907.19;5072726;28;20048;-72
2021/05/17 09:55:01;;;;;;;9.35;6.93;;;;;;;15.51;88.91;98902.34;5072699;28;20036;-73
2021/05/17 09:57:32;;;;;;;11.00;6.68;;;;;;;15.50;88.60;98898.81;5072771;28;20037;-74
2021/05/17 10:00:07;;;;;;;8.15;6.25;;;;;;;15.44;89.08;98873.41;5072779;28;20041;-74
2021/05/17 10:02:39;;;;;;;9.63;6.93;;;;;;;15.68;90.31;98885.38;5072673;28;20048;-73
2021/05/17 10:05:14;;;;;;;9.73;5.43;;;;;;;15.62;88.07;98884.13;5072597;28;20036;-74
2021/05/17 10:07:44;;;;;;;8.10;5.38;;;;;;;15.49;88.52;98882.84;5072601;28;20037;-74
2021/05/17 10:10:13;;;;;;;7.50;5.57;;;;;;;15.36;90.72;98894.84;5072615;28;20047;-74
2021/05/17 10:12:42;;;;;;;8.63;5.72;;;;;;;15.38;91.22;98882.09;5077019;28;20047;-73
2021/05/17 10:15:13;;;;;;;12.95;8.68;;;;;;;15.36;91.93;98884.09;5071729;28;20064;-74
2021/05/17 10:17:45;;;;;;;15.32;9.50;;;;;;;15.38;91.53;98873.19;5055638;28;20041;-74
2021/05/17 10:20:18;;;;;;;9.38;5.82;;;;;;;15.43;91.05;98873.56;5051532;28;20099;-70
2021/05/17 10:22:50;;;;;;;8.05;5.53;;;;;;;15.46;90.14;98866.03;5052465;28;20053;-73
2021/05/17 10:25:23;;;;;;;7.97;5.60;;;;;;;15.55;90.02;98860.72;5052320;28;20041;-72
2021/05/17 10:27:54;;;;;;;8.77;5.90;;;;;;;15.50;89.92;98842.38;5052094;28;20044;-72
2021/05/17 10:30:25;;;;;;;10.65;6.80;;;;;;;15.42;91.49;98861.13;5052449;28;20040;-73
2021/05/17 10:32:57;;;;;;;8.20;6.15;;;;;;;15.24;92.88;98857.63;5050604;28;20049;-71
2021/05/17 10:35:27;;;;;;;8.95;6.97;;;;;;;15.12;94.28;98854.34;5052264;28;20095;-73
2021/05/17 10:38:15;;;;;;;10.63;8.05;;;;;;;15.20;94.74;98857.09;5052193;28;20052;-74
2021/05/17 10:40:47;;;;;;;9.00;7.15;;;;;;;15.36;93.46;98851.03;5052302;28;20061;-73
2021/05/17 10:43:29;;;;;;;10.40;7.72;;;;;;;15.51;93.10;98852.13;5052405;28;20074;-73
2021/05/17 10:49:29;;;;;;;9.98;6.15;;;;;;;15.38;92.10;98839.09;5072124;28;20040;-73
2021/05/17 10:52:24;;;;;;;10.60;6.15;;;;;;;15.29;91.97;98848.09;5072240;28;20094;-74
2021/05/17 10:55:07;;;;;;;9.15;6.10;;;;;;;15.27;91.37;98842.06;5072090;28;20079;-73
2021/05/17 10:57:57;;;;;;;8.35;5.57;;;;;;;15.06;92.57;98828.97;5072177;28;20390;-72
2021/05/17 11:00:25;;;;;;;7.97;6.15;;;;;;;14.95;93.90;98828.34;5074951;28;20051;-71
2021/05/17 11:03:12;;;;;;;8.88;6.72;;;;;;;15.08;94.48;98844.91;5058742;28;20390;-72
2021/05/17 11:05:44;;;;;;;9.40;6.82;;;;;;;15.21;94.39;98848.03;5058277;28;20048;-69
2021/05/17 11:08:13;;;;;;;9.65;6.53;;;;;;;15.63;93.73;98848.22;5056496;28;20048;-72
2021/05/17 11:10:49;;;;;;;10.82;6.75;;;;;;;15.91;92.70;98846.16;5055512;28;20049;-74
2021/05/17 11:13:23;;;;;;;9.27;5.75;;;;;;;16.00;90.83;98820.16;5055657;28;20033;-69
2021/05/17 11:15:59;;;;;;;9.90;6.30;;;;;;;16.47;89.80;98847.41;5064493;28;20037;-73
2021/05/17 11:18:44;;;;;;;8.07;5.25;;;;;;;16.53;89.04;98841.38;5071286;28;20052;-69
2021/05/17 11:21:26;;;;;;;8.80;5.53;;;;;;;16.66;88.99;98840.06;5059543;28;20029;-71
2021/05/17 11:23:59;;;;;;;6.95;4.97;;;;;;;16.70;88.39;98836.09;5074823;28;20049;-71
2021/05/17 11:26:30;;;;;;;6.50;4.38;;;;;;;16.51;88.75;98826.41;5060442;28;20049;-72
2021/05/17 11:29:13;;;;;;;6.30;4.43;;;;;;;16.42;89.26;98828.25;5071269;28;20397;-72
2021/05/17 11:31:44;;;;;;;8.80;4.77;;;;;;;16.53;88.59;98836.00;5061444;28;20059;-74
2021/05/17 11:34:21;;;;;;;9.70;3.97;;;;;;;16.36;87.88;98819.97;5062039;28;20087;-72
2021/05/17 11:36:53;;;;;;;5.80;3.40;;;;;;;16.35;89.18;98837.13;5071441;28;20080;-73
2021/05/17 11:39:25;;;;;;;6.03;3.30;;;;;;;16.18;88.88;98820.91;5060037;28;20036;-70
2021/05/17 11:42:04;;;;;;;5.20;3.53;;;;;;;16.21;89.13;98830.50;5064469;28;20049;-74
2021/05/17 11:44:35;;;;;;;6.43;3.38;;;;;;;16.09;89.12;98829.97;5069968;28;20083;-74
2021/05/17 11:47:05;;;;;;;5.63;2.90;;;;;;;16.05;89.63;98843.91;5071078;28;20115;-74
2021/05/17 11:49:38;;;;;;;5.50;3.35;;;;;;;16.01;89.87;98836.13;5073761;28;20048;-77
2021/05/17 11:52:08;;;;;;;4.35;3.33;;;;;;;15.99;89.10;98822.00;5062573;28;20076;-71
2021/05/17 11:54:39;;;;;;;7.25;3.67;;;;;;;15.98;90.19;98831.09;5070573;28;20040;-71
2021/05/17 11:57:09;;;;;;;5.85;3.55;;;;;;;15.97;89.67;98828.56;5058201;28;20044;-71
2021/05/17 11:59:38;;;;;;;5.10;3.75;;;;;;;15.92;90.17;98821.00;5074196;28;20125;-75
2021/05/17 12:02:07;;;;;;;5.75;3.90;;;;;;;15.88;89.63;98808.84;5062229;28;20133;-76
2021/05/17 12:04:36;;;;;;;7.03;3.85;;;;;;;16.05;89.76;98825.06;5070285;28;20044;-71